sensor_id;sensor_type;location;lat;lon;timestamp;P1;durP1;ratioP1;P2;durP2;ratioP2
25443;SDS011;13368;52.346;4.678;2022-08-01T00:00:00;13.6;;;6.1;;
25443;SDS011;13368;52.346;4.678;2022-08-01T00:05:00;7.2;;;5.9;;
25443;SDS011;13368;52.346;4.678;2022-08-01T00:10:00;9.4;;;5.3;;
25443;SDS011;13368;52.346;4.678;2022-08-01T00:15:00;8.8;;;6.1;;
25443;SDS011;13368;52.346;4.678;2022-08-01T00:20:00;6.1;;;4.6;;
25443;SDS011;13368;52.346;4.678;2022-08-01T00:25:00;7.6;;;4.7;;
25443;SDS011;13368;52.346;4.678;2022-08-01T00:30:00;6.9;;;4.7;;
25443;SDS011;13368;52.346;4.678;2022-08-01T00:35:00;6.3;;;4.2;;
25443;SDS011;13368;52.346;4.678;2022-08-01T00:40:00;8.9;;;5.8;;
25443;SDS011;13368;52.346;4.678;2022-08-01T00:45:00;6.6;;;4.6;;
25443;SDS011;13368;52.346;4.678;2022-08-01T00:50:00;8.2;;;5.3;;
25443;SDS011;13368;52.346;4.678;2022-08-01T00:55:00;5.0;;;3.9;;
25443;SDS011;13368;52.346;4.678;2022-08-01T01:00:00;4.1;;;3.6;;
25443;SDS011;13368;52.346;4.678;2022-08-01T01:05:00;4.1;;;3.3;;
25443;SDS011;13368;52.346;4.678;2022-08-01T01:10:00;6.3;;;4.3;;
25443;SDS011;13368;52.346;4.678;2022-08-01T01:15:01;9.0;;;4.2;;
25443;SDS011;13368;52.346;4.678;2022-08-01T01:20:00;4.9;;;3.1;;
25443;SDS011;13368;52.346;4.678;2022-08-01T01:25:08;3.9;;;3.5;;
25443;SDS011;13368;52.346;4.678;2022-08-01T01:30:00;4.5;;;4.1;;
25443;SDS011;13368;52.346;4.678;2022-08-01T01:35:00;6.6;;;3.6;;
25443;SDS011;13368;52.346;4.678;2022-08-01T01:40:00;3.0;;;2.6;;
25443;SDS011;13368;52.346;4.678;2022-08-01T01:45:00;8.4;;;4.1;;
25443;SDS011;13368;52.346;4.678;2022-08-01T01:50:00;5.3;;;3.2;;
25443;SDS011;13368;52.346;4.678;2022-08-01T01:55:00;3.1;;;2.8;;
25443;SDS011;13368;52.346;4.678;2022-08-01T02:00:00;2.7;;;2.5;;
25443;SDS011;13368;52.346;4.678;2022-08-01T02:05:00;3.4;;;2.7;;
25443;SDS011;13368;52.346;4.678;2022-08-01T02:10:00;5.3;;;3.5;;
25443;SDS011;13368;52.346;4.678;2022-08-01T02:15:00;3.3;;;2.8;;
25443;SDS011;13368;52.346;4.678;2022-08-01T02:20:00;5.5;;;2.8;;
25443;SDS011;13368;52.346;4.678;2022-08-01T02:25:01;3.0;;;2.4;;
25443;SDS011;13368;52.346;4.678;2022-08-01T02:30:02;6.9;;;2.4;;
25443;SDS011;13368;52.346;4.678;2022-08-01T02:35:00;3.8;;;2.0;;
25443;SDS011;13368;52.346;4.678;2022-08-01T02:40:00;3.8;;;3.0;;
25443;SDS011;13368;52.346;4.678;2022-08-01T02:45:00;6.4;;;2.9;;
25443;SDS011;13368;52.346;4.678;2022-08-01T02:50:00;3.8;;;2.5;;
25443;SDS011;13368;52.346;4.678;2022-08-01T02:55:00;4.1;;;2.4;;
25443;SDS011;13368;52.346;4.678;2022-08-01T03:00:00;3.7;;;2.6;;
25443;SDS011;13368;52.346;4.678;2022-08-01T03:05:00;2.6;;;2.4;;
25443;SDS011;13368;52.346;4.678;2022-08-01T03:10:00;4.5;;;2.4;;
25443;SDS011;13368;52.346;4.678;2022-08-01T03:15:00;3.6;;;2.5;;
25443;SDS011;13368;52.346;4.678;2022-08-01T03:20:00;2.4;;;2.2;;
25443;SDS011;13368;52.346;4.678;2022-08-01T03:25:00;2.4;;;2.2;;
25443;SDS011;13368;52.346;4.678;2022-08-01T03:30:00;2.6;;;2.4;;
25443;SDS011;13368;52.346;4.678;2022-08-01T03:35:00;2.3;;;1.8;;
25443;SDS011;13368;52.346;4.678;2022-08-01T03:40:00;2.5;;;1.5;;
25443;SDS011;13368;52.346;4.678;2022-08-01T03:45:02;2.1;;;1.4;;
25443;SDS011;13368;52.346;4.678;2022-08-01T03:50:00;2.5;;;2.0;;
25443;SDS011;13368;52.346;4.678;2022-08-01T03:55:01;5.0;;;2.7;;
25443;SDS011;13368;52.346;4.678;2022-08-01T04:00:00;3.7;;;1.9;;
25443;SDS011;13368;52.346;4.678;2022-08-01T04:05:00;2.7;;;2.2;;
25443;SDS011;13368;52.346;4.678;2022-08-01T04:10:00;7.1;;;2.5;;
25443;SDS011;13368;52.346;4.678;2022-08-01T04:15:00;4.9;;;3.0;;
25443;SDS011;13368;52.346;4.678;2022-08-01T04:20:00;1.7;;;1.3;;
25443;SDS011;13368;52.346;4.678;2022-08-01T04:25:00;3.1;;;2.4;;
25443;SDS011;13368;52.346;4.678;2022-08-01T04:30:00;2.2;;;1.9;;
25443;SDS011;13368;52.346;4.678;2022-08-01T04:35:00;3.8;;;2.1;;
25443;SDS011;13368;52.346;4.678;2022-08-01T04:40:00;1.8;;;1.7;;
25443;SDS011;13368;52.346;4.678;2022-08-01T04:45:00;2.4;;;2.2;;
25443;SDS011;13368;52.346;4.678;2022-08-01T04:50:00;2.8;;;1.9;;
25443;SDS011;13368;52.346;4.678;2022-08-01T04:55:00;4.4;;;1.7;;
25443;SDS011;13368;52.346;4.678;2022-08-01T05:00:00;1.8;;;1.4;;
25443;SDS011;13368;52.346;4.678;2022-08-01T05:05:00;2.2;;;1.9;;
25443;SDS011;13368;52.346;4.678;2022-08-01T05:10:00;11.4;;;2.2;;
25443;SDS011;13368;52.346;4.678;2022-08-01T05:15:00;1.3;;;1.2;;
25443;SDS011;13368;52.346;4.678;2022-08-01T05:20:00;1.4;;;1.3;;
25443;SDS011;13368;52.346;4.678;2022-08-01T05:25:00;2.6;;;1.7;;
25443;SDS011;13368;52.346;4.678;2022-08-01T05:30:00;2.0;;;1.7;;
25443;SDS011;13368;52.346;4.678;2022-08-01T05:35:00;7.8;;;1.6;;
25443;SDS011;13368;52.346;4.678;2022-08-01T05:40:00;2.7;;;2.0;;
25443;SDS011;13368;52.346;4.678;2022-08-01T05:45:00;1.6;;;1.5;;
25443;SDS011;13368;52.346;4.678;2022-08-01T05:50:00;3.1;;;1.4;;
25443;SDS011;13368;52.346;4.678;2022-08-01T05:55:00;1.6;;;1.5;;
25443;SDS011;13368;52.346;4.678;2022-08-01T06:00:00;1.9;;;1.2;;
25443;SDS011;13368;52.346;4.678;2022-08-01T06:05:00;1.8;;;1.6;;
25443;SDS011;13368;52.346;4.678;2022-08-01T06:10:00;3.1;;;1.2;;
25443;SDS011;13368;52.346;4.678;2022-08-01T06:15:00;1.7;;;1.4;;
25443;SDS011;13368;52.346;4.678;2022-08-01T06:20:00;2.9;;;1.6;;
25443;SDS011;13368;52.346;4.678;2022-08-01T06:25:00;1.1;;;1.0;;
25443;SDS011;13368;52.346;4.678;2022-08-01T06:30:00;1.7;;;1.0;;
25443;SDS011;13368;52.346;4.678;2022-08-01T06:35:00;3.9;;;1.8;;
25443;SDS011;13368;52.346;4.678;2022-08-01T06:40:00;2.1;;;1.4;;
25443;SDS011;13368;52.346;4.678;2022-08-01T06:45:00;2.4;;;1.1;;
25443;SDS011;13368;52.346;4.678;2022-08-01T06:50:00;3.0;;;1.5;;
25443;SDS011;13368;52.346;4.678;2022-08-01T06:55:00;1.4;;;1.3;;
25443;SDS011;13368;52.346;4.678;2022-08-01T07:00:00;2.4;;;1.6;;
25443;SDS011;13368;52.346;4.678;2022-08-01T07:05:00;1.4;;;1.0;;
25443;SDS011;13368;52.346;4.678;2022-08-01T07:10:00;1.1;;;1.0;;
25443;SDS011;13368;52.346;4.678;2022-08-01T07:15:00;1.4;;;1.2;;
25443;SDS011;13368;52.346;4.678;2022-08-01T07:20:00;1.0;;;0.7;;
25443;SDS011;13368;52.346;4.678;2022-08-01T07:25:00;2.7;;;1.0;;
25443;SDS011;13368;52.346;4.678;2022-08-01T07:30:00;3.3;;;1.5;;
25443;SDS011;13368;52.346;4.678;2022-08-01T07:35:00;2.2;;;0.6;;
25443;SDS011;13368;52.346;4.678;2022-08-01T07:40:00;0.7;;;0.7;;
25443;SDS011;13368;52.346;4.678;2022-08-01T07:45:00;0.7;;;0.7;;
25443;SDS011;13368;52.346;4.678;2022-08-01T07:50:00;1.1;;;1.0;;
25443;SDS011;13368;52.346;4.678;2022-08-01T07:55:00;1.3;;;0.9;;
25443;SDS011;13368;52.346;4.678;2022-08-01T08:00:00;0.8;;;0.8;;
25443;SDS011;13368;52.346;4.678;2022-08-01T08:05:00;1.5;;;1.0;;
25443;SDS011;13368;52.346;4.678;2022-08-01T08:15:03;unavailable;;;unavailable;;
25443;SDS011;13368;52.346;4.678;2022-08-01T08:20:00;unavailable;;;unavailable;;
25443;SDS011;13368;52.346;4.678;2022-08-01T08:25:00;unavailable;;;unavailable;;
25443;SDS011;13368;52.346;4.678;2022-08-01T08:30:00;unavailable;;;unavailable;;
25443;SDS011;13368;52.346;4.678;2022-08-01T08:35:00;12.0;;;1.1;;
25443;SDS011;13368;52.346;4.678;2022-08-01T08:40:00;0.9;;;0.9;;
25443;SDS011;13368;52.346;4.678;2022-08-01T08:45:00;1.1;;;0.9;;
25443;SDS011;13368;52.346;4.678;2022-08-01T08:50:00;0.6;;;0.6;;
25443;SDS011;13368;52.346;4.678;2022-08-01T08:55:00;1.1;;;1.0;;
25443;SDS011;13368;52.346;4.678;2022-08-01T09:00:00;1.0;;;0.9;;
25443;SDS011;13368;52.346;4.678;2022-08-01T09:05:00;1.2;;;1.1;;
25443;SDS011;13368;52.346;4.678;2022-08-01T09:10:00;0.9;;;0.9;;
25443;SDS011;13368;52.346;4.678;2022-08-01T09:15:00;5.7;;;0.7;;
25443;SDS011;13368;52.346;4.678;2022-08-01T09:20:02;0.7;;;0.6;;
25443;SDS011;13368;52.346;4.678;2022-08-01T09:25:01;1.2;;;0.9;;
25443;SDS011;13368;52.346;4.678;2022-08-01T09:35:00;0.7;;;0.7;;
25443;SDS011;13368;52.346;4.678;2022-08-01T09:40:00;1.9;;;0.9;;
25443;SDS011;13368;52.346;4.678;2022-08-01T09:45:00;0.8;;;0.6;;
25443;SDS011;13368;52.346;4.678;2022-08-01T09:50:00;0.9;;;0.7;;
25443;SDS011;13368;52.346;4.678;2022-08-01T09:55:00;0.8;;;0.8;;
25443;SDS011;13368;52.346;4.678;2022-08-01T10:00:00;2.4;;;1.1;;
25443;SDS011;13368;52.346;4.678;2022-08-01T10:05:03;0.6;;;0.6;;
25443;SDS011;13368;52.346;4.678;2022-08-01T10:10:08;1.0;;;0.8;;
25443;SDS011;13368;52.346;4.678;2022-08-01T10:15:00;1.1;;;1.0;;
25443;SDS011;13368;52.346;4.678;2022-08-01T10:20:00;2.9;;;0.6;;
25443;SDS011;13368;52.346;4.678;2022-08-01T10:25:00;1.3;;;1.0;;
25443;SDS011;13368;52.346;4.678;2022-08-01T10:30:00;0.9;;;0.7;;
25443;SDS011;13368;52.346;4.678;2022-08-01T10:35:00;1.0;;;0.9;;
25443;SDS011;13368;52.346;4.678;2022-08-01T10:40:00;2.4;;;1.2;;
25443;SDS011;13368;52.346;4.678;2022-08-01T10:45:00;0.8;;;0.6;;
25443;SDS011;13368;52.346;4.678;2022-08-01T10:50:01;0.8;;;0.6;;
25443;SDS011;13368;52.346;4.678;2022-08-01T10:55:01;0.4;;;0.4;;
25443;SDS011;13368;52.346;4.678;2022-08-01T11:00:00;0.8;;;0.5;;
25443;SDS011;13368;52.346;4.678;2022-08-01T11:05:01;0.5;;;0.5;;
25443;SDS011;13368;52.346;4.678;2022-08-01T11:10:03;0.5;;;0.5;;
25443;SDS011;13368;52.346;4.678;2022-08-01T11:20:03;2.2;;;0.8;;
25443;SDS011;13368;52.346;4.678;2022-08-01T11:25:00;0.7;;;0.6;;
25443;SDS011;13368;52.346;4.678;2022-08-01T11:35:00;1.2;;;0.9;;
25443;SDS011;13368;52.346;4.678;2022-08-01T11:45:00;6.7;;;1.0;;
25443;SDS011;13368;52.346;4.678;2022-08-01T11:50:00;0.4;;;0.4;;
25443;SDS011;13368;52.346;4.678;2022-08-01T11:55:04;0.6;;;0.6;;
25443;SDS011;13368;52.346;4.678;2022-08-01T12:00:00;0.7;;;0.6;;
25443;SDS011;13368;52.346;4.678;2022-08-01T12:05:00;0.6;;;0.5;;
25443;SDS011;13368;52.346;4.678;2022-08-01T12:10:03;1.2;;;0.5;;
25443;SDS011;13368;52.346;4.678;2022-08-01T12:15:00;0.5;;;0.5;;
25443;SDS011;13368;52.346;4.678;2022-08-01T12:20:00;1.0;;;0.7;;
25443;SDS011;13368;52.346;4.678;2022-08-01T12:25:08;0.7;;;0.5;;
25443;SDS011;13368;52.346;4.678;2022-08-01T12:30:00;0.9;;;0.8;;
25443;SDS011;13368;52.346;4.678;2022-08-01T12:35:00;1.2;;;0.8;;
25443;SDS011;13368;52.346;4.678;2022-08-01T12:40:09;3.0;;;0.8;;
25443;SDS011;13368;52.346;4.678;2022-08-01T12:45:00;1.4;;;0.8;;
25443;SDS011;13368;52.346;4.678;2022-08-01T12:50:00;1.1;;;0.9;;
25443;SDS011;13368;52.346;4.678;2022-08-01T12:55:04;2.1;;;1.0;;
25443;SDS011;13368;52.346;4.678;2022-08-01T13:00:08;1.6;;;1.0;;
25443;SDS011;13368;52.346;4.678;2022-08-01T13:05:00;1.1;;;0.6;;
25443;SDS011;13368;52.346;4.678;2022-08-01T13:10:00;0.6;;;0.6;;
25443;SDS011;13368;52.346;4.678;2022-08-01T13:15:12;0.4;;;0.4;;
25443;SDS011;13368;52.346;4.678;2022-08-01T13:20:00;0.6;;;0.6;;
25443;SDS011;13368;52.346;4.678;2022-08-01T13:30:09;0.8;;;0.8;;
25443;SDS011;13368;52.346;4.678;2022-08-01T13:35:00;2.4;;;0.9;;
25443;SDS011;13368;52.346;4.678;2022-08-01T13:40:00;1.9;;;0.8;;
25443;SDS011;13368;52.346;4.678;2022-08-01T13:45:00;1.1;;;0.7;;
25443;SDS011;13368;52.346;4.678;2022-08-01T13:50:00;0.9;;;0.6;;
25443;SDS011;13368;52.346;4.678;2022-08-01T13:55:00;1.5;;;0.8;;
25443;SDS011;13368;52.346;4.678;2022-08-01T14:00:03;0.6;;;0.6;;
25443;SDS011;13368;52.346;4.678;2022-08-01T14:05:00;0.5;;;0.5;;
25443;SDS011;13368;52.346;4.678;2022-08-01T14:10:00;2.5;;;0.7;;
25443;SDS011;13368;52.346;4.678;2022-08-01T14:15:00;0.5;;;0.5;;
25443;SDS011;13368;52.346;4.678;2022-08-01T14:20:00;2.3;;;1.0;;
25443;SDS011;13368;52.346;4.678;2022-08-01T14:25:00;0.6;;;0.5;;
25443;SDS011;13368;52.346;4.678;2022-08-01T14:30:00;0.6;;;0.6;;
25443;SDS011;13368;52.346;4.678;2022-08-01T14:35:00;2.6;;;0.6;;
25443;SDS011;13368;52.346;4.678;2022-08-01T14:40:00;0.7;;;0.6;;
25443;SDS011;13368;52.346;4.678;2022-08-01T14:45:00;2.3;;;0.8;;
25443;SDS011;13368;52.346;4.678;2022-08-01T14:50:01;1.1;;;0.5;;
25443;SDS011;13368;52.346;4.678;2022-08-01T14:55:00;1.5;;;1.0;;
25443;SDS011;13368;52.346;4.678;2022-08-01T15:00:00;1.0;;;0.8;;
25443;SDS011;13368;52.346;4.678;2022-08-01T15:05:00;0.7;;;0.6;;
25443;SDS011;13368;52.346;4.678;2022-08-01T15:10:00;0.8;;;0.6;;
25443;SDS011;13368;52.346;4.678;2022-08-01T15:15:00;1.4;;;0.8;;
25443;SDS011;13368;52.346;4.678;2022-08-01T15:20:04;0.7;;;0.6;;
25443;SDS011;13368;52.346;4.678;2022-08-01T15:25:00;0.8;;;0.6;;
25443;SDS011;13368;52.346;4.678;2022-08-01T15:30:00;6.3;;;2.4;;
25443;SDS011;13368;52.346;4.678;2022-08-01T15:35:00;4.1;;;1.5;;
25443;SDS011;13368;52.346;4.678;2022-08-01T15:40:00;0.6;;;0.6;;
25443;SDS011;13368;52.346;4.678;2022-08-01T15:45:00;2.2;;;0.9;;
25443;SDS011;13368;52.346;4.678;2022-08-01T15:50:00;4.0;;;0.7;;
25443;SDS011;13368;52.346;4.678;2022-08-01T15:55:00;2.5;;;1.3;;
25443;SDS011;13368;52.346;4.678;2022-08-01T16:00:00;1.7;;;0.7;;
25443;SDS011;13368;52.346;4.678;2022-08-01T16:05:00;0.7;;;0.7;;
25443;SDS011;13368;52.346;4.678;2022-08-01T16:10:02;1.7;;;0.5;;
25443;SDS011;13368;52.346;4.678;2022-08-01T16:15:00;2.4;;;0.8;;
25443;SDS011;13368;52.346;4.678;2022-08-01T16:20:00;0.8;;;0.5;;
25443;SDS011;13368;52.346;4.678;2022-08-01T16:25:00;0.4;;;0.4;;
25443;SDS011;13368;52.346;4.678;2022-08-01T16:30:00;0.4;;;0.4;;
25443;SDS011;13368;52.346;4.678;2022-08-01T16:35:00;0.5;;;0.5;;
25443;SDS011;13368;52.346;4.678;2022-08-01T16:40:00;0.5;;;0.5;;
25443;SDS011;13368;52.346;4.678;2022-08-01T16:45:00;0.3;;;0.3;;
25443;SDS011;13368;52.346;4.678;2022-08-01T16:50:00;0.5;;;0.4;;
25443;SDS011;13368;52.346;4.678;2022-08-01T16:55:00;0.8;;;0.6;;
25443;SDS011;13368;52.346;4.678;2022-08-01T17:00:00;0.4;;;0.3;;
25443;SDS011;13368;52.346;4.678;2022-08-01T17:05:00;1.1;;;0.5;;
25443;SDS011;13368;52.346;4.678;2022-08-01T17:10:00;0.5;;;0.5;;
25443;SDS011;13368;52.346;4.678;2022-08-01T17:15:02;0.5;;;0.5;;
25443;SDS011;13368;52.346;4.678;2022-08-01T17:20:00;0.6;;;0.5;;
25443;SDS011;13368;52.346;4.678;2022-08-01T17:25:00;2.0;;;1.0;;
25443;SDS011;13368;52.346;4.678;2022-08-01T17:30:00;0.8;;;0.7;;
25443;SDS011;13368;52.346;4.678;2022-08-01T17:35:00;0.6;;;0.4;;
25443;SDS011;13368;52.346;4.678;2022-08-01T17:40:00;2.1;;;0.7;;
25443;SDS011;13368;52.346;4.678;2022-08-01T17:45:01;1.2;;;0.9;;
25443;SDS011;13368;52.346;4.678;2022-08-01T17:50:00;0.7;;;0.6;;
25443;SDS011;13368;52.346;4.678;2022-08-01T17:55:00;0.9;;;0.7;;
25443;SDS011;13368;52.346;4.678;2022-08-01T18:00:00;0.9;;;0.6;;
25443;SDS011;13368;52.346;4.678;2022-08-01T18:05:00;2.6;;;0.6;;
25443;SDS011;13368;52.346;4.678;2022-08-01T18:10:00;0.5;;;0.5;;
25443;SDS011;13368;52.346;4.678;2022-08-01T18:15:00;0.9;;;0.5;;
25443;SDS011;13368;52.346;4.678;2022-08-01T18:20:00;0.5;;;0.5;;
25443;SDS011;13368;52.346;4.678;2022-08-01T18:25:00;0.5;;;0.5;;
25443;SDS011;13368;52.346;4.678;2022-08-01T18:30:00;0.6;;;0.6;;
25443;SDS011;13368;52.346;4.678;2022-08-01T18:35:00;1.7;;;0.7;;
25443;SDS011;13368;52.346;4.678;2022-08-01T18:40:00;2.8;;;0.7;;
25443;SDS011;13368;52.346;4.678;2022-08-01T18:45:00;0.9;;;0.9;;
25443;SDS011;13368;52.346;4.678;2022-08-01T18:50:02;3.1;;;0.8;;
25443;SDS011;13368;52.346;4.678;2022-08-01T18:55:00;0.8;;;0.6;;
25443;SDS011;13368;52.346;4.678;2022-08-01T19:00:00;1.6;;;1.0;;
25443;SDS011;13368;52.346;4.678;2022-08-01T19:05:00;1.6;;;1.3;;
25443;SDS011;13368;52.346;4.678;2022-08-01T19:10:00;0.7;;;0.7;;
25443;SDS011;13368;52.346;4.678;2022-08-01T19:15:00;0.7;;;0.6;;
25443;SDS011;13368;52.346;4.678;2022-08-01T19:20:00;0.8;;;0.8;;
25443;SDS011;13368;52.346;4.678;2022-08-01T19:25:00;1.1;;;0.8;;
25443;SDS011;13368;52.346;4.678;2022-08-01T19:30:00;0.7;;;0.7;;
25443;SDS011;13368;52.346;4.678;2022-08-01T19:35:01;1.6;;;0.7;;
25443;SDS011;13368;52.346;4.678;2022-08-01T19:40:00;0.5;;;0.5;;
25443;SDS011;13368;52.346;4.678;2022-08-01T19:45:00;1.0;;;0.9;;
25443;SDS011;13368;52.346;4.678;2022-08-01T19:50:00;2.7;;;1.1;;
25443;SDS011;13368;52.346;4.678;2022-08-01T19:55:03;0.4;;;0.4;;
25443;SDS011;13368;52.346;4.678;2022-08-01T20:00:00;1.0;;;0.8;;
25443;SDS011;13368;52.346;4.678;2022-08-01T20:05:00;1.0;;;0.9;;
25443;SDS011;13368;52.346;4.678;2022-08-01T20:10:03;1.8;;;0.9;;
25443;SDS011;13368;52.346;4.678;2022-08-01T20:15:00;0.8;;;0.8;;
25443;SDS011;13368;52.346;4.678;2022-08-01T20:20:00;1.3;;;0.8;;
25443;SDS011;13368;52.346;4.678;2022-08-01T20:25:01;1.3;;;0.8;;
25443;SDS011;13368;52.346;4.678;2022-08-01T20:30:00;0.6;;;0.6;;
25443;SDS011;13368;52.346;4.678;2022-08-01T20:35:00;0.9;;;0.6;;
25443;SDS011;13368;52.346;4.678;2022-08-01T20:40:00;0.7;;;0.7;;
25443;SDS011;13368;52.346;4.678;2022-08-01T20:45:00;0.7;;;0.7;;
25443;SDS011;13368;52.346;4.678;2022-08-01T20:50:02;1.0;;;0.8;;
25443;SDS011;13368;52.346;4.678;2022-08-01T20:55:00;1.0;;;0.7;;
25443;SDS011;13368;52.346;4.678;2022-08-01T21:00:00;0.9;;;0.8;;
25443;SDS011;13368;52.346;4.678;2022-08-01T21:05:01;0.8;;;0.8;;
25443;SDS011;13368;52.346;4.678;2022-08-01T21:10:02;1.1;;;0.6;;
25443;SDS011;13368;52.346;4.678;2022-08-01T21:15:00;0.6;;;0.6;;
25443;SDS011;13368;52.346;4.678;2022-08-01T21:20:00;0.9;;;0.8;;
25443;SDS011;13368;52.346;4.678;2022-08-01T21:25:01;0.6;;;0.6;;
25443;SDS011;13368;52.346;4.678;2022-08-01T21:30:00;1.2;;;0.9;;
25443;SDS011;13368;52.346;4.678;2022-08-01T21:35:00;0.6;;;0.6;;
25443;SDS011;13368;52.346;4.678;2022-08-01T21:40:00;1.3;;;0.7;;
25443;SDS011;13368;52.346;4.678;2022-08-01T21:45:00;0.6;;;0.5;;
25443;SDS011;13368;52.346;4.678;2022-08-01T21:50:00;0.7;;;0.7;;
25443;SDS011;13368;52.346;4.678;2022-08-01T21:55:03;0.8;;;0.8;;
25443;SDS011;13368;52.346;4.678;2022-08-01T22:00:01;0.5;;;0.5;;
25443;SDS011;13368;52.346;4.678;2022-08-01T22:05:01;2.9;;;0.7;;
25443;SDS011;13368;52.346;4.678;2022-08-01T22:10:00;0.6;;;0.6;;
25443;SDS011;13368;52.346;4.678;2022-08-01T22:15:01;1.1;;;0.8;;
25443;SDS011;13368;52.346;4.678;2022-08-01T22:20:00;1.0;;;0.7;;
25443;SDS011;13368;52.346;4.678;2022-08-01T22:25:00;0.6;;;0.6;;
25443;SDS011;13368;52.346;4.678;2022-08-01T22:30:02;0.5;;;0.5;;
25443;SDS011;13368;52.346;4.678;2022-08-01T22:35:00;0.5;;;0.5;;
25443;SDS011;13368;52.346;4.678;2022-08-01T22:40:00;0.4;;;0.4;;
25443;SDS011;13368;52.346;4.678;2022-08-01T22:45:02;0.8;;;0.8;;
25443;SDS011;13368;52.346;4.678;2022-08-01T22:50:02;1.1;;;0.7;;
25443;SDS011;13368;52.346;4.678;2022-08-01T22:55:02;0.6;;;0.6;;
25443;SDS011;13368;52.346;4.678;2022-08-01T23:00:04;1.0;;;0.8;;
25443;SDS011;13368;52.346;4.678;2022-08-01T23:05:01;8.3;;;0.8;;
25443;SDS011;13368;52.346;4.678;2022-08-01T23:10:00;0.7;;;0.7;;
25443;SDS011;13368;52.346;4.678;2022-08-01T23:15:00;1.0;;;0.8;;
25443;SDS011;13368;52.346;4.678;2022-08-01T23:20:00;3.3;;;0.9;;
25443;SDS011;13368;52.346;4.678;2022-08-01T23:25:00;1.9;;;1.0;;
25443;SDS011;13368;52.346;4.678;2022-08-01T23:30:00;0.6;;;0.6;;
25443;SDS011;13368;52.346;4.678;2022-08-01T23:35:00;0.7;;;0.7;;
25443;SDS011;13368;52.346;4.678;2022-08-01T23:40:00;0.6;;;0.6;;
25443;SDS011;13368;52.346;4.678;2022-08-01T23:45:00;0.6;;;0.6;;
25443;SDS011;13368;52.346;4.678;2022-08-01T23:50:00;0.6;;;0.6;;
25443;SDS011;13368;52.346;4.678;2022-08-01T23:55:00;1.3;;;0.8;;
